Time;durP1;ratioP1;P1;durP2;ratioP2;P2;SDS_P1;SDS_P2;PMS_P1;PMS_P2;Temp;Humidity;BMP_temperature;BMP_pressure;BME280_temperature;BME280_humidity;BME280_pressure;Samples;Min_cycle;Max_cycle;Signal;HPM_P1;HPM_P2
2023/02/15 00:01:08;;;;;;;79.57;16.00;;;;;;;-2.64;100.00;100416.28;5067158;28;20048;-79
2023/02/15 00:03:35;;;;;;;46.92;13.27;;;;;;;-2.53;100.00;100450.41;5061918;28;20044;-79
2023/02/15 00:06:04;;;;;;;29.45;14.68;;;;;;;-2.69;100.00;100413.00;5068620;28;20194;-79
2023/02/15 00:08:31;;;;;;;72.63;16.98;;;;;;;-2.81;100.00;100435.69;5054468;28;20044;-79
2023/02/15 00:11:06;;;;;;;60.60;13.68;;;;;;;-2.90;100.00;100421.00;5061938;28;20059;-79
2023/02/15 00:13:32;;;;;;;62.95;13.32;;;;;;;-2.73;100.00;100430.88;5062614;28;20056;-79
2023/02/15 00:16:02;;;;;;;54.03;13.25;;;;;;;-2.65;100.00;100435.84;5070555;28;20305;-79
2023/02/15 00:18:28;;;;;;;47.10;14.55;;;;;;;-2.82;100.00;100425.97;5065069;28;20044;-79
2023/02/15 00:20:55;;;;;;;29.27;12.85;;;;;;;-2.88;100.00;100423.59;5059950;28;20071;-79
2023/02/15 00:23:23;;;;;;;56.97;15.98;;;;;;;-2.81;100.00;100419.72;5066436;28;20047;-79
2023/02/15 00:25:49;;;;;;;62.50;14.93;;;;;;;-2.83;100.00;100420.72;5060583;28;20051;-79
2023/02/15 00:28:16;;;;;;;38.75;14.55;;;;;;;-2.83;100.00;100415.41;5055161;28;20431;-79
2023/02/15 00:30:43;;;;;;;50.33;13.82;;;;;;;-2.93;100.00;100397.19;5064531;28;20055;-79
2023/02/15 00:33:09;;;;;;;48.45;15.60;;;;;;;-2.81;100.00;100417.06;5067896;28;20044;-79
2023/02/15 00:35:36;;;;;;;59.00;17.65;;;;;;;-3.00;100.00;100419.66;5062761;28;20048;-79
2023/02/15 00:38:02;;;;;;;50.42;14.32;;;;;;;-2.88;100.00;100444.88;5066267;28;20412;-79
2023/02/15 00:40:30;;;;;;;46.58;15.95;;;;;;;-2.94;100.00;100408.75;5067009;28;20047;-79
2023/02/15 00:42:58;;;;;;;59.45;15.23;;;;;;;-2.93;100.00;100406.97;5066979;28;20121;-79
2023/02/15 00:45:24;;;;;;;54.58;15.20;;;;;;;-2.92;100.00;100403.38;5059828;28;20043;-79
2023/02/15 00:47:51;;;;;;;43.67;14.65;;;;;;;-2.81;100.00;100434.84;5058292;28;20493;-78
2023/02/15 00:50:18;;;;;;;41.63;16.13;;;;;;;-2.73;100.00;100433.53;5066731;28;20106;-79
2023/02/15 00:52:44;;;;;;;54.40;15.25;;;;;;;-2.81;100.00;100409.09;5063918;28;20056;-79
2023/02/15 00:55:11;;;;;;;52.60;15.07;;;;;;;-2.91;100.00;100395.31;5067798;28;20581;-79
2023/02/15 00:57:38;;;;;;;50.00;14.32;;;;;;;-2.85;100.00;100387.03;5060838;28;20060;-79
2023/02/15 01:00:06;;;;;;;51.00;14.18;;;;;;;-2.73;100.00;100427.38;5060423;28;20048;-79
2023/02/15 01:02:33;;;;;;;35.83;12.97;;;;;;;-2.90;100.00;100417.47;5060638;28;20052;-79
2023/02/15 01:05:00;;;;;;;38.17;11.63;;;;;;;-3.09;100.00;100394.34;5057081;28;20049;-79
2023/02/15 01:07:26;;;;;;;37.22;12.88;;;;;;;-2.96;100.00;100413.28;5065812;28;20127;-79
2023/02/15 01:09:53;;;;;;;39.92;15.32;;;;;;;-3.09;100.00;100380.19;5068370;28;20044;-79
2023/02/15 01:12:19;;;;;;;47.25;14.23;;;;;;;-3.05;100.00;100406.56;5063796;28;20052;-79
2023/02/15 01:14:47;;;;;;;55.30;13.55;;;;;;;-3.21;100.00;100386.91;5057094;28;20056;-79
2023/02/15 01:17:13;;;;;;;38.58;12.35;;;;;;;-3.18;100.00;100372.59;5055116;28;20127;-79
2023/02/15 01:19:40;;;;;;;52.53;12.20;;;;;;;-2.93;100.00;100409.63;5060072;28;20060;-79
2023/02/15 01:22:06;;;;;;;34.77;9.67;;;;;;;-2.99;100.00;100396.59;5052997;28;20074;-79
2023/02/15 01:24:33;;;;;;;59.63;10.80;;;;;;;-3.04;100.00;100416.28;5055103;28;20076;-79
2023/02/15 01:26:59;;;;;;;72.47;19.10;;;;;;;-2.98;100.00;100390.34;5055816;28;20041;-79
2023/02/15 01:29:26;;;;;;;44.85;12.52;;;;;;;-2.78;100.00;100416.94;5056179;28;20060;-79
2023/02/15 01:31:54;;;;;;;58.88;13.18;;;;;;;-2.88;100.00;100402.31;5053271;28;20059;-79
2023/02/15 01:34:20;;;;;;;39.35;10.43;;;;;;;-2.83;100.00;100418.94;5064620;28;20056;-79
2023/02/15 01:36:48;;;;;;;40.22;12.07;;;;;;;-2.92;100.00;100395.38;5056592;28;20301;-79
2023/02/15 01:39:14;;;;;;;54.33;14.48;;;;;;;-2.82;100.00;100395.84;5057223;28;20036;-79
2023/02/15 01:41:41;;;;;;;95.25;21.23;;;;;;;-2.66;100.00;100407.53;5065684;28;20060;-79
2023/02/15 01:44:41;;;;;;;44.65;14.10;;;;;;;-2.65;100.00;100411.03;5071222;28;20045;-79
2023/02/15 01:47:10;;;;;;;;;;;;;;;-2.61;100.00;100417.97;5057316;28;20508;-78
2023/02/15 01:49:37;;;;;;;47.27;12.43;;;;;;;-2.74;100.00;100385.69;5061153;28;19920;-78
2023/02/15 01:52:03;;;;;;;55.35;13.57;;;;;;;-2.75;100.00;100384.84;5047579;28;20056;-79
2023/02/15 01:54:33;;;;;;;63.55;14.40;;;;;;;-2.69;100.00;100403.19;5067840;28;20052;-79
2023/02/15 01:57:02;;;;;;;;;;;;;;;-2.69;100.00;100416.50;5063327;28;20095;-78
2023/02/15 01:59:30;;;;;;;48.80;11.67;;;;;;;-2.71;100.00;100393.53;5064171;28;19935;-79
2023/02/15 02:01:59;;;;;;;62.83;12.65;;;;;;;-2.60;100.00;100404.56;5066406;28;20048;-79
2023/02/15 02:04:34;;;;;;;56.50;11.87;;;;;;;-2.76;100.00;100368.94;5062242;28;20050;-79
2023/02/15 02:07:01;;;;;;;63.08;14.77;;;;;;;-2.75;100.00;100374.19;5067615;28;20403;-79
2023/02/15 02:09:28;;;;;;;77.82;21.08;;;;;;;-2.90;100.00;100370.44;5053595;28;20084;-79
2023/02/15 02:11:54;;;;;;;77.63;13.30;;;;;;;-2.75;100.00;100384.84;5064754;28;20080;-79
2023/02/15 02:14:22;;;;;;;71.72;11.93;;;;;;;-2.64;100.00;100387.00;5051439;28;20052;-79
2023/02/15 02:16:58;;;;;;;47.67;13.07;;;;;;;-2.66;100.00;100370.25;5066580;28;20049;-79
2023/02/15 02:20:00;;;;;;;43.33;12.02;;;;;;;-2.61;100.00;100388.66;5066392;28;20044;-79
2023/02/15 02:23:06;;;;;;;60.90;11.20;;;;;;;-2.67;100.00;100348.06;5047514;28;20123;-79
2023/02/15 02:26:05;;;;;;;38.75;10.27;;;;;;;-2.80;100.00;100346.06;5062813;28;21651;-78
2023/02/15 02:29:00;;;;;;;65.57;14.38;;;;;;;-2.69;100.00;100368.59;5058426;28;20064;-79
2023/02/15 02:31:44;;;;;;;33.30;9.93;;;;;;;-2.65;100.00;100347.16;5053572;28;20405;-79
2023/02/15 02:34:18;;;;;;;49.15;11.35;;;;;;;-2.60;100.00;100358.47;5059414;28;20049;-79
2023/02/15 02:36:50;;;;;;;32.30;9.43;;;;;;;-2.86;100.00;100355.19;5069572;28;20051;-79
2023/02/15 02:39:27;;;;;;;41.53;9.63;;;;;;;-2.76;100.00;100367.13;5061449;28;20052;-79
2023/02/15 02:42:01;;;;;;;36.50;8.55;;;;;;;-2.92;100.00;100364.34;5063154;28;20055;-79
2023/02/15 02:44:35;;;;;;;70.63;10.77;;;;;;;-2.98;100.00;100348.66;5069492;28;20040;-79
2023/02/15 02:47:09;;;;;;;26.70;8.48;;;;;;;-2.83;100.00;100376.34;5067531;28;20056;-79
2023/02/15 02:49:40;;;;;;;81.90;10.23;;;;;;;-2.93;100.00;100351.94;5070864;28;20127;-79
2023/02/15 02:52:08;;;;;;;32.67;9.20;;;;;;;-2.93;100.00;100357.28;5071184;28;20480;-79
2023/02/15 02:54:36;;;;;;;37.50;9.82;;;;;;;-2.89;100.00;100345.56;5065409;28;20045;-79
2023/02/15 02:57:08;;;;;;;94.55;12.85;;;;;;;-2.64;100.00;100383.50;5072255;28;20049;-79
2023/02/15 02:59:40;;;;;;;97.28;13.13;;;;;;;-2.70;100.00;100372.16;5060515;28;20500;-79
2023/02/15 03:02:13;;;;;;;71.22;12.00;;;;;;;-2.62;100.00;100369.19;5070565;28;20056;-79
2023/02/15 03:04:44;;;;;;;111.78;18.50;;;;;;;-2.68;100.00;100345.47;5068209;28;20538;-79
2023/02/15 03:07:15;;;;;;;37.25;9.70;;;;;;;-2.56;100.00;100347.59;5071042;28;20058;-79
2023/02/15 03:09:45;;;;;;;71.53;11.20;;;;;;;-2.59;100.00;100341.53;5071810;28;20041;-79
2023/02/15 03:12:15;;;;;;;52.67;11.18;;;;;;;-2.54;100.00;100356.34;5069993;28;20045;-79
2023/02/15 03:14:44;;;;;;;30.23;9.98;;;;;;;-2.52;100.00;100370.44;5072004;28;20059;-79
2023/02/15 03:17:13;;;;;;;48.30;9.40;;;;;;;-2.56;100.00;100334.28;5069806;28;20056;-79
2023/02/15 03:19:41;;;;;;;40.47;10.20;;;;;;;-2.49;100.00;100326.84;5070009;28;20046;-79
2023/02/15 03:22:14;;;;;;;56.10;10.95;;;;;;;-2.44;100.00;100356.78;5062621;28;20405;-79
2023/02/15 03:24:44;;;;;;;68.15;13.48;;;;;;;-2.35;100.00;100360.81;5068148;28;20048;-79
2023/02/15 03:27:17;;;;;;;50.80;11.80;;;;;;;-2.44;100.00;100356.78;5070282;28;20048;-79
2023/02/15 03:29:47;;;;;;;68.85;9.73;;;;;;;-2.76;100.00;100331.69;5070280;28;20056;-79
2023/02/15 03:32:16;;;;;;;62.10;12.23;;;;;;;-2.76;100.00;100329.03;5071734;28;20056;-79
2023/02/15 03:34:44;;;;;;;39.33;12.37;;;;;;;-2.65;100.00;100355.13;5059721;28;20140;-79
2023/02/15 03:37:18;;;;;;;77.75;11.27;;;;;;;-2.61;100.00;100354.06;5071778;28;20058;-79
2023/02/15 03:39:52;;;;;;;72.60;12.95;;;;;;;-2.65;100.00;100336.50;5066786;28;20507;-79
2023/02/15 03:42:23;;;;;;;42.20;9.75;;;;;;;-2.58;100.00;100354.78;5057411;28;20048;-79
2023/02/15 03:44:55;;;;;;;67.80;11.15;;;;;;;-2.64;100.00;100357.72;5070541;28;20049;-79
2023/02/15 03:47:28;;;;;;;50.67;10.55;;;;;;;-2.71;100.00;100332.31;5065120;28;20572;-79
2023/02/15 03:50:01;;;;;;;35.25;10.80;;;;;;;-2.73;100.00;100359.00;5070505;28;20143;-79
2023/02/15 03:52:30;;;;;;;74.60;10.45;;;;;;;-2.70;100.00;100361.53;5061873;28;20057;-79
2023/02/15 03:54:57;;;;;;;62.00;15.73;;;;;;;-2.61;100.00;100367.38;5071034;28;20050;-79
2023/02/15 04:03:11;;;;;;;60.03;13.20;;;;;;;-2.57;100.00;100369.81;5069123;28;20095;-79
2023/02/15 04:05:40;;;;;;;66.03;9.60;;;;;;;-2.69;100.00;100355.28;5067159;28;20374;-79
2023/02/15 04:08:06;;;;;;;58.05;9.65;;;;;;;-2.62;100.00;100360.31;5062709;28;20052;-79
2023/02/15 04:13:17;;;;;;;53.42;11.45;;;;;;;-2.68;100.00;100369.44;5061575;28;20055;-79
2023/02/15 04:26:41;;;;;;;47.95;10.02;;;;;;;-2.86;100.00;100363.16;5071204;28;20051;-79
2023/02/15 04:29:08;;;;;;;54.70;7.97;;;;;;;-2.80;100.00;100368.22;5069322;28;20053;-79
2023/02/15 04:31:34;;;;;;;68.78;11.45;;;;;;;-2.97;100.00;100341.50;5069777;28;20135;-79
2023/02/15 04:34:01;;;;;;;43.63;8.85;;;;;;;-2.94;100.00;100350.22;5064063;28;20048;-79
2023/02/15 04:36:29;;;;;;;47.08;8.70;;;;;;;-2.83;100.00;100330.22;5069031;28;20048;-79
2023/02/15 04:38:55;;;;;;;73.38;13.90;;;;;;;-2.82;100.00;100337.28;5070569;28;20040;-79
2023/02/15 04:41:22;;;;;;;63.13;11.05;;;;;;;-2.95;100.00;100319.22;5067648;28;20498;-79
2023/02/15 04:43:48;;;;;;;33.30;9.43;;;;;;;-2.63;100.00;100347.97;5069424;28;20044;-79
2023/02/15 04:46:15;;;;;;;47.78;8.30;;;;;;;-2.62;100.00;100342.56;5067399;28;20044;-79
2023/02/15 04:48:42;;;;;;;28.25;8.15;;;;;;;-2.74;100.00;100321.81;5067424;28;20049;-79
2023/02/15 04:51:09;;;;;;;30.52;9.63;;;;;;;-2.75;100.00;100315.63;5062848;28;20052;-79
2023/02/15 04:53:37;;;;;;;32.20;8.82;;;;;;;-2.81;100.00;100323.91;5070174;28;20079;-79
2023/02/15 04:56:04;;;;;;;50.57;9.87;;;;;;;-2.69;100.00;100338.44;5069373;28;20515;-79
2023/02/15 04:58:30;;;;;;;56.25;8.57;;;;;;;-2.67;100.00;100342.75;5070127;28;20044;-79
2023/02/15 05:00:57;;;;;;;54.42;9.20;;;;;;;-2.75;100.00;100336.94;5064899;28;20051;-79
2023/02/15 05:03:24;;;;;;;43.83;8.47;;;;;;;-2.96;100.00;100322.81;5069614;28;20052;-79
2023/02/15 05:05:51;;;;;;;51.17;8.90;;;;;;;-2.92;100.00;100343.03;5067160;28;20063;-79
2023/02/15 05:08:17;;;;;;;30.10;7.93;;;;;;;-2.98;100.00;100330.03;5068402;28;20063;-79
2023/02/15 05:10:45;;;;;;;30.43;8.87;;;;;;;-3.13;100.00;100314.72;5064304;28;20036;-79
2023/02/15 05:13:11;;;;;;;26.85;9.82;;;;;;;-2.99;100.00;100320.31;5061499;28;20055;-79
2023/02/15 05:15:38;;;;;;;65.00;13.07;;;;;;;-3.15;100.00;100311.28;5068059;28;20041;-79
2023/02/15 05:18:06;;;;;;;36.73;8.67;;;;;;;-2.98;100.00;100347.75;5062848;28;20052;-79
2023/02/15 05:20:32;;;;;;;47.87;10.00;;;;;;;-3.07;100.00;100331.28;5068306;28;20504;-79
2023/02/15 05:22:59;;;;;;;47.47;9.57;;;;;;;-3.17;100.00;100339.75;5069514;28;20067;-79
2023/02/15 05:28:20;;;;;;;53.13;11.18;;;;;;;-3.18;100.00;100320.25;5069124;28;20050;-79
2023/02/15 05:30:47;;;;;;;27.25;10.52;;;;;;;-2.99;100.00;100335.41;5062269;28;20054;-78
2023/02/15 05:33:13;;;;;;;44.27;9.50;;;;;;;-3.21;100.00;100331.03;5064702;28;20049;-81
2023/02/15 05:35:40;;;;;;;42.83;11.18;;;;;;;-3.12;100.00;100340.41;5069219;28;20502;-79
2023/02/15 05:38:06;;;;;;;26.50;10.93;;;;;;;-3.12;100.00;100325.31;5070174;28;20419;-79
2023/02/15 05:40:33;;;;;;;60.92;10.45;;;;;;;-3.23;100.00;100311.63;5068522;28;20049;-79
2023/02/15 05:42:59;;;;;;;39.70;10.30;;;;;;;-3.35;100.00;100314.84;5067472;28;20044;-79
2023/02/15 05:45:27;;;;;;;37.03;12.68;;;;;;;-3.28;100.00;100322.47;5064407;28;20094;-79
2023/02/15 05:47:54;;;;;;;40.17;10.88;;;;;;;-3.11;100.00;100347.47;5067768;28;20052;-79
2023/02/15 05:50:21;;;;;;;34.50;9.00;;;;;;;-3.16;100.00;100333.50;5055632;28;20484;-79
2023/02/15 05:52:47;;;;;;;48.80;9.98;;;;;;;-3.30;100.00;100336.78;5068131;28;20408;-79
2023/02/15 05:55:14;;;;;;;29.08;10.48;;;;;;;-3.21;100.00;100331.94;5061905;28;20058;-79
2023/02/15 05:57:40;;;;;;;29.03;10.63;;;;;;;-3.09;100.00;100332.28;5068507;28;20052;-79
2023/02/15 06:00:09;;;;;;;43.20;10.30;;;;;;;-3.21;100.00;100313.31;5065025;28;20056;-79
2023/02/15 06:02:38;;;;;;;24.23;10.73;;;;;;;-3.18;100.00;100330.91;5062582;28;20482;-79
2023/02/15 06:05:05;;;;;;;28.02;10.65;;;;;;;-3.08;100.00;100350.84;5068365;28;20052;-79
2023/02/15 06:07:32;;;;;;;47.67;10.67;;;;;;;-3.10;100.00;100334.09;5068502;28;20049;-79
2023/02/15 06:09:59;;;;;;;25.63;12.93;;;;;;;-2.95;100.00;100363.59;5058481;28;20049;-79
2023/02/15 06:12:25;;;;;;;32.30;9.33;;;;;;;-3.06;100.00;100342.78;5063843;28;20412;-79
2023/02/15 06:14:52;;;;;;;49.07;10.43;;;;;;;-3.16;100.00;100328.16;5057542;28;20477;-79
2023/02/15 06:17:18;;;;;;;29.70;9.43;;;;;;;-3.22;100.00;100337.31;5060515;28;20048;-79
2023/02/15 06:19:46;;;;;;;29.40;10.07;;;;;;;-3.14;100.00;100347.59;5070111;28;20411;-79
2023/02/15 06:22:14;;;;;;;56.03;11.20;;;;;;;-3.32;100.00;100330.66;5071097;28;20506;-80
2023/02/15 06:24:42;;;;;;;47.73;10.50;;;;;;;-3.29;100.00;100343.81;5055606;28;20071;-79
2023/02/15 06:27:08;;;;;;;39.70;9.13;;;;;;;-3.31;100.00;100345.66;5060254;28;20055;-79
2023/02/15 06:29:35;;;;;;;35.43;10.27;;;;;;;-3.32;100.00;100352.81;5063448;28;20048;-79
2023/02/15 06:32:01;;;;;;;26.73;12.27;;;;;;;-3.38;100.00;100359.25;5070080;28;20476;-79
2023/02/15 06:34:28;;;;;;;50.30;9.87;;;;;;;-3.34;100.00;100353.78;5058875;28;20423;-79
2023/02/15 06:36:56;;;;;;;57.72;9.88;;;;;;;-3.32;100.00;100379.38;5069201;28;20055;-79
2023/02/15 06:39:23;;;;;;;29.43;8.83;;;;;;;-3.23;100.00;100370.16;5070707;28;20055;-79
2023/02/15 06:41:50;;;;;;;20.53;10.07;;;;;;;-3.38;100.00;100361.03;5062568;28;20056;-79
2023/02/15 06:44:16;;;;;;;33.87;8.77;;;;;;;-3.44;100.00;100356.00;5062498;28;20044;-79
2023/02/15 06:46:43;;;;;;;48.23;9.67;;;;;;;-3.36;100.00;100376.94;5066609;28;20062;-79
2023/02/15 06:49:10;;;;;;;55.83;9.67;;;;;;;-3.44;100.00;100370.16;5065871;28;20066;-79
2023/02/15 06:51:36;;;;;;;68.17;11.57;;;;;;;-3.32;100.00;100378.53;5068603;28;20047;-79
2023/02/15 06:54:04;;;;;;;34.83;11.20;;;;;;;-3.24;100.00;100377.28;5057931;28;20471;-79
2023/02/15 06:56:31;;;;;;;111.67;30.43;;;;;;;-3.32;100.00;100371.41;5064871;28;20418;-79
2023/02/15 06:58:58;;;;;;;67.00;23.43;;;;;;;-3.18;100.00;100383.25;5067443;28;20056;-79
2023/02/15 07:01:24;;;;;;;91.67;16.83;;;;;;;-3.47;100.00;100362.31;5067117;28;20062;-79
2023/02/15 07:03:51;;;;;;;66.68;12.35;;;;;;;-3.22;100.00;100390.50;5061182;28;20052;-79
2023/02/15 07:06:17;;;;;;;27.17;11.37;;;;;;;-3.15;100.00;100385.78;5069763;28;20054;-79
2023/02/15 07:08:44;;;;;;;35.77;10.43;;;;;;;-3.08;100.00;100388.09;5060239;28;20124;-79
2023/02/15 07:13:56;;;;;;;30.17;10.67;;;;;;;-3.23;100.00;100383.44;5068908;28;20113;-79
2023/02/15 07:16:23;;;;;;;48.43;12.17;;;;;;;-3.35;100.00;100374.22;5063496;28;20078;-79
2023/02/15 07:18:49;;;;;;;26.70;10.70;;;;;;;-3.42;100.00;100378.06;5069177;28;20041;-79
2023/02/15 07:21:16;;;;;;;27.10;8.90;;;;;;;-3.25;100.00;100395.94;5068358;28;20127;-79
2023/02/15 07:23:43;;;;;;;56.47;13.23;;;;;;;-3.24;100.00;100397.66;5066637;28;20076;-80
2023/02/15 07:26:09;;;;;;;46.97;10.13;;;;;;;-3.24;100.00;100403.00;5067892;28;20041;-79
2023/02/15 07:28:37;;;;;;;40.03;10.10;;;;;;;-3.39;100.00;100384.13;5069870;28;20041;-79
2023/02/15 07:31:04;;;;;;;36.97;12.93;;;;;;;-3.28;100.00;100407.59;5070072;28;20048;-79
2023/02/15 07:33:31;;;;;;;36.63;10.23;;;;;;;-3.25;100.00;100394.16;5060991;28;20525;-79
2023/02/15 07:35:59;;;;;;;34.33;10.10;;;;;;;-3.26;100.00;100394.22;5066328;28;20056;-79
2023/02/15 07:38:28;;;;;;;43.73;11.30;;;;;;;-3.13;100.00;100390.09;5057771;28;20043;-79
2023/02/15 07:40:59;;;;;;;65.87;11.33;;;;;;;-3.20;100.00;100397.47;5074034;28;20048;-79
2023/02/15 07:43:25;;;;;;;40.45;11.52;;;;;;;-3.16;100.00;100384.03;5070393;28;20040;-79
2023/02/15 07:45:53;;;;;;;83.10;16.17;;;;;;;-3.13;100.00;100387.44;5068623;28;20143;-79
2023/02/15 07:48:20;;;;;;;109.85;28.77;;;;;;;-3.21;100.00;100370.94;5062527;28;20492;-79
2023/02/15 07:50:46;;;;;;;32.05;9.32;;;;;;;-3.11;100.00;100393.53;5063918;28;20051;-79
2023/02/15 07:53:13;;;;;;;34.47;10.60;;;;;;;-3.01;100.00;100386.03;5069570;28;20132;-79
2023/02/15 07:55:39;;;;;;;49.90;20.30;;;;;;;-3.00;100.00;100381.56;5070951;28;20060;-79
2023/02/15 07:58:06;;;;;;;29.90;11.05;;;;;;;-2.73;100.00;100382.13;5071842;28;20496;-79
2023/02/15 08:00:55;;;;;;;64.47;15.60;;;;;;;-2.95;100.00;100351.16;5070161;28;20395;-79
2023/02/15 08:03:20;;;;;;;59.90;12.37;;;;;;;-2.96;100.00;100364.53;5063468;28;20046;-79
2023/02/15 08:05:47;;;;;;;60.80;11.73;;;;;;;-2.95;100.00;100369.78;5071996;28;20052;-79
2023/02/15 08:08:29;;;;;;;31.17;10.80;;;;;;;-2.88;100.00;100383.66;5072116;28;20056;-79
2023/02/15 08:13:53;;;;;;;47.60;13.43;;;;;;;-2.95;100.00;100399.06;5071336;28;20060;-79
2023/02/15 08:16:20;;;;;;;59.60;12.70;;;;;;;-2.93;100.00;100405.16;5056406;28;20160;-79
2023/02/15 08:18:48;;;;;;;43.00;13.63;;;;;;;-2.77;100.00;100389.38;5070302;28;20071;-79
2023/02/15 08:21:15;;;;;;;44.45;18.73;;;;;;;-2.75;100.00;100378.66;5071185;28;20059;-79
2023/02/15 08:23:41;;;;;;;73.78;16.30;;;;;;;-2.79;100.00;100403.69;5071161;28;20063;-79
2023/02/15 08:26:08;;;;;;;105.45;26.88;;;;;;;-2.91;100.00;100376.69;5071114;28;20063;-79
2023/02/15 08:28:34;;;;;;;68.07;10.23;;;;;;;-3.08;100.00;100395.22;5071276;28;20084;-79
2023/02/15 08:31:06;;;;;;;68.37;19.43;;;;;;;-2.99;100.00;100376.19;5064507;28;20052;-79
2023/02/15 08:33:32;;;;;;;60.58;11.48;;;;;;;-2.95;100.00;100368.91;5070512;28;20058;-79
2023/02/15 08:36:04;;;;;;;63.88;19.58;;;;;;;-2.76;100.00;100379.59;5068916;28;20480;-79
2023/02/15 08:38:31;;;;;;;45.17;14.23;;;;;;;-2.68;100.00;100378.31;5070653;28;20060;-79
2023/02/15 08:40:58;;;;;;;40.72;15.23;;;;;;;-2.56;100.00;100365.34;5071396;28;20421;-79
2023/02/15 08:43:24;;;;;;;38.05;13.18;;;;;;;-2.61;100.00;100370.03;5070492;28;20056;-79
2023/02/15 08:45:51;;;;;;;51.92;11.63;;;;;;;-2.81;100.00;100382.47;5060775;28;20160;-79
2023/02/15 08:48:17;;;;;;;44.13;10.10;;;;;;;-2.69;100.00;100357.94;5070619;28;20051;-79
2023/02/15 08:50:44;;;;;;;36.40;13.88;;;;;;;-2.62;100.00;100393.16;5057154;28;20049;-79
2023/02/15 08:53:12;;;;;;;74.68;23.40;;;;;;;-2.40;100.00;100402.78;5062122;28;20067;-79
2023/02/15 08:55:39;;;;;;;35.58;13.52;;;;;;;-2.41;100.00;100371.75;5056963;28;20052;-79
2023/02/15 08:58:06;;;;;;;45.67;12.10;;;;;;;-2.40;100.00;100376.16;5070136;28;20074;-79
2023/02/15 09:00:32;;;;;;;50.20;12.75;;;;;;;-2.32;100.00;100358.88;5064332;28;20053;-79
2023/02/15 09:02:59;;;;;;;63.80;23.17;;;;;;;-2.23;100.00;100362.91;5070178;28;20447;-80
2023/02/15 09:05:26;;;;;;;39.75;12.77;;;;;;;-2.29;100.00;100355.19;5070817;28;20139;-79
2023/02/15 09:07:52;;;;;;;55.72;13.80;;;;;;;-2.26;100.00;100346.19;5066919;28;20048;-79
2023/02/15 09:10:20;;;;;;;38.63;10.00;;;;;;;-2.26;100.00;100338.19;5067902;28;20053;-79
2023/02/15 09:12:49;;;;;;;41.42;14.82;;;;;;;-1.95;100.00;100361.53;5066558;28;20041;-79
2023/02/15 09:15:16;;;;;;;34.25;12.18;;;;;;;-1.87;100.00;100358.50;5070595;28;20056;-79
2023/02/15 09:17:42;;;;;;;32.30;12.88;;;;;;;-1.88;100.00;100349.66;5070871;28;20052;-79
2023/02/15 09:20:09;;;;;;;62.00;30.27;;;;;;;-2.16;100.00;100324.34;5070826;28;20067;-79
2023/02/15 09:22:36;;;;;;;40.75;13.20;;;;;;;-1.93;100.00;100322.34;5068757;28;20050;-79
2023/02/15 09:25:03;;;;;;;25.17;11.50;;;;;;;-1.88;100.00;100338.09;5070735;28;20045;-79
2023/02/15 09:27:31;;;;;;;28.95;10.90;;;;;;;-1.96;100.00;100344.69;5067720;28;20388;-79
2023/02/15 09:29:58;;;;;;;37.53;10.25;;;;;;;-1.94;100.00;100349.94;5068431;28;20049;-79
2023/02/15 09:32:24;;;;;;;30.25;13.15;;;;;;;-1.94;100.00;100338.41;5069945;28;20060;-79
2023/02/15 09:34:51;;;;;;;39.95;12.07;;;;;;;-1.91;100.00;100327.59;5070853;28;20432;-79
2023/02/15 09:37:17;;;;;;;29.50;13.23;;;;;;;-1.91;100.00;100308.94;5070747;28;20383;-79
2023/02/15 09:39:44;;;;;;;32.78;13.05;;;;;;;-1.53;100.00;100333.66;5070818;28;20056;-79
2023/02/15 09:42:36;;;;;;;23.30;11.43;;;;;;;-1.15;100.00;100316.59;5062918;28;20056;-79
2023/02/15 09:45:27;;;;;;;27.15;11.98;;;;;;;-0.88;100.00;100321.38;5040972;28;20052;-79
2023/02/15 09:48:21;;;;;;;34.50;11.20;;;;;;;-0.68;100.00;100317.59;5070486;28;20047;-79
2023/02/15 09:51:04;;;;;;;23.63;11.38;;;;;;;-1.03;100.00;100309.72;5068360;28;20400;-79
2023/02/15 09:53:43;;;;;;;32.45;11.85;;;;;;;-1.17;100.00;100305.13;5073532;28;20121;-79
2023/02/15 09:56:19;;;;;;;32.05;11.57;;;;;;;-1.12;100.00;100314.59;5073361;28;20571;-79
2023/02/15 09:58:53;;;;;;;24.25;10.25;;;;;;;-1.05;100.00;100307.13;5070865;28;20044;-79
2023/02/15 10:01:30;;;;;;;43.45;11.98;;;;;;;-1.02;100.00;100306.97;5066374;28;20045;-79
2023/02/15 10:04:12;;;;;;;25.55;11.23;;;;;;;-1.00;100.00;100299.72;5073641;28;20049;-78
2023/02/15 10:06:44;;;;;;;27.88;11.77;;;;;;;-0.95;100.00;100299.47;5070011;28;20407;-79
2023/02/15 10:09:26;;;;;;;29.58;12.65;;;;;;;-0.64;100.00;100308.50;5074157;28;20091;-79
2023/02/15 10:12:18;;;;;;;30.65;12.95;;;;;;;-0.55;100.00;100294.63;5074014;28;20070;-79
2023/02/15 10:15:04;;;;;;;34.72;12.00;;;;;;;-0.36;100.00;100292.63;5071487;28;20060;-79
2023/02/15 10:17:45;;;;;;;25.05;11.10;;;;;;;-0.36;100.00;100303.31;5062451;28;20052;-79
2023/02/15 10:20:24;;;;;;;26.13;12.35;;;;;;;-0.47;100.00;100302.19;5074049;28;20044;-79
2023/02/15 10:23:09;;;;;;;27.23;9.38;;;;;;;-0.48;100.00;100316.50;5073177;28;20052;-79
2023/02/15 10:25:42;;;;;;;32.42;13.85;;;;;;;-0.43;100.00;100306.44;5073858;28;20052;-79
2023/02/15 10:28:16;;;;;;;21.17;9.48;;;;;;;-0.55;100.00;100306.16;5073478;28;20052;-79
2023/02/15 10:30:48;;;;;;;28.17;12.43;;;;;;;-0.29;100.00;100300.28;5066147;28;20060;-79
2023/02/15 10:33:43;;;;;;;26.13;12.68;;;;;;;-0.14;100.00;100302.06;5065633;28;20056;-78
2023/02/15 10:36:28;;;;;;;24.98;12.48;;;;;;;-0.08;100.00;100276.81;5073607;28;20052;-79
2023/02/15 10:39:03;;;;;;;24.55;12.23;;;;;;;-0.15;100.00;100292.34;5073615;28;20054;-79
2023/02/15 10:41:42;;;;;;;26.00;12.70;;;;;;;-0.11;100.00;100277.84;5073313;28;20055;-79
2023/02/15 10:44:35;;;;;;;26.85;13.90;;;;;;;0.20;100.00;100309.94;5072847;28;20049;-79
2023/02/15 10:47:17;;;;;;;26.27;12.38;;;;;;;0.05;100.00;100282.31;5067578;28;20040;-79
2023/02/15 10:50:07;;;;;;;27.88;12.63;;;;;;;0.27;100.00;100279.19;5069273;28;20041;-78
2023/02/15 10:52:48;;;;;;;27.75;13.50;;;;;;;0.35;100.00;100269.75;5072536;28;20635;-78
2023/02/15 10:55:24;;;;;;;27.85;12.40;;;;;;;0.57;100.00;100270.28;5072622;28;20147;-78
2023/02/15 10:57:59;;;;;;;27.05;13.40;;;;;;;0.41;100.00;100262.34;5073331;28;20052;-78
2023/02/15 11:00:34;;;;;;;23.20;12.10;;;;;;;0.64;100.00;100290.38;5071237;28;20052;-78
2023/02/15 11:03:26;;;;;;;21.95;12.40;;;;;;;0.42;100.00;100288.13;5072177;28;20049;-78
2023/02/15 11:06:03;;;;;;;26.88;12.55;;;;;;;0.61;100.00;100279.84;5071932;28;20041;-78
2023/02/15 11:08:35;;;;;;;25.60;13.18;;;;;;;0.81;100.00;100270.59;5072664;28;20044;-78
2023/02/15 11:11:05;;;;;;;23.63;12.13;;;;;;;0.75;100.00;100252.22;5073107;28;20055;-79
2023/02/15 11:13:35;;;;;;;26.05;12.60;;;;;;;1.17;100.00;100277.25;5066840;28;20048;-79
2023/02/15 11:16:06;;;;;;;23.95;12.90;;;;;;;1.00;100.00;100243.53;5072792;28;20411;-79
2023/02/15 11:18:37;;;;;;;25.75;11.88;;;;;;;1.30;100.00;100270.16;5072085;28;20078;-78
2023/02/15 11:21:08;;;;;;;26.70;13.70;;;;;;;1.23;100.00;100253.63;5054882;28;20495;-78
2023/02/15 11:23:37;;;;;;;26.73;12.57;;;;;;;1.28;100.00;100253.34;5072178;28;20490;-79
2023/02/15 11:26:05;;;;;;;24.48;12.32;;;;;;;1.48;100.00;100264.59;5072785;28;20055;-78
2023/02/15 11:28:37;;;;;;;22.73;12.20;;;;;;;1.20;100.00;100240.41;5063911;28;20040;-78
2023/02/15 11:31:19;;;;;;;26.88;13.05;;;;;;;1.09;100.00;100242.09;5063976;28;20044;-78
2023/02/15 11:33:51;;;;;;;23.80;12.68;;;;;;;1.46;100.00;100262.00;5068174;28;20567;-78
2023/02/15 11:36:23;;;;;;;22.95;12.98;;;;;;;1.45;100.00;100246.88;5072276;28;20055;-78
2023/02/15 11:38:55;;;;;;;25.17;12.15;;;;;;;1.59;100.00;100254.84;5070027;28;20052;-78
2023/02/15 11:41:27;;;;;;;18.33;9.50;;;;;;;1.26;100.00;100235.63;5072363;28;20055;-78
2023/02/15 11:43:59;;;;;;;24.25;12.18;;;;;;;1.31;100.00;100250.47;5071964;28;20049;-78
2023/02/15 11:46:25;;;;;;;23.48;12.57;;;;;;;1.30;100.00;100254.09;5070833;28;20075;-78